sensor_id;sensor_type;location;lat;lon;timestamp;pressure;altitude;pressure_sealevel;temperature;humidity
73101;BME280;61288;53.446;-2.266;2023-08-21T00:01:02;102610.28;;;13.95;100.00
73101;BME280;61288;53.446;-2.266;2023-08-21T00:03:29;102625.06;;;13.95;100.00
73101;BME280;61288;53.446;-2.266;2023-08-21T00:05:55;102639.06;;;13.91;100.00
73101;BME280;61288;53.446;-2.266;2023-08-21T00:08:20;102651.22;;;13.90;100.00
73101;BME280;61288;53.446;-2.266;2023-08-21T00:10:46;102659.88;;;13.92;100.00
73101;BME280;61288;53.446;-2.266;2023-08-21T00:13:11;102665.91;;;13.94;100.00
73101;BME280;61288;53.446;-2.266;2023-08-21T00:15:38;102661.56;;;13.95;100.00
73101;BME280;61288;53.446;-2.266;2023-08-21T00:18:04;102666.75;;;13.96;100.00
73101;BME280;61288;53.446;-2.266;2023-08-21T00:20:30;102676.22;;;13.99;100.00
73101;BME280;61288;53.446;-2.266;2023-08-21T00:22:56;102661.44;;;13.99;100.00
73101;BME280;61288;53.446;-2.266;2023-08-21T00:25:22;102666.69;;;13.98;100.00
73101;BME280;61288;53.446;-2.266;2023-08-21T00:27:48;102658.88;;;13.98;100.00
73101;BME280;61288;53.446;-2.266;2023-08-21T00:30:14;102663.25;;;13.97;100.00
73101;BME280;61288;53.446;-2.266;2023-08-21T00:32:43;102660.63;;;13.97;100.00
73101;BME280;61288;53.446;-2.266;2023-08-21T00:35:08;102659.75;;;13.98;100.00
73101;BME280;61288;53.446;-2.266;2023-08-21T00:37:34;102661.53;;;13.96;100.00
73101;BME280;61288;53.446;-2.266;2023-08-21T00:40:00;102658.91;;;13.96;100.00
73101;BME280;61288;53.446;-2.266;2023-08-21T00:42:27;102656.31;;;13.96;100.00
73101;BME280;61288;53.446;-2.266;2023-08-21T00:44:53;102658.09;;;13.94;100.00
73101;BME280;61288;53.446;-2.266;2023-08-21T00:47:18;102658.09;;;13.94;100.00
73101;BME280;61288;53.446;-2.266;2023-08-21T00:49:45;102668.53;;;13.94;100.00
73101;BME280;61288;53.446;-2.266;2023-08-21T00:52:12;102674.56;;;13.96;100.00
73101;BME280;61288;53.446;-2.266;2023-08-21T00:54:38;102679.72;;;13.98;100.00
73101;BME280;61288;53.446;-2.266;2023-08-21T00:57:04;102675.41;;;13.97;100.00
73101;BME280;61288;53.446;-2.266;2023-08-21T00:59:30;102679.78;;;13.96;100.00
73101;BME280;61288;53.446;-2.266;2023-08-21T01:01:55;102683.16;;;14.00;100.00
73101;BME280;61288;53.446;-2.266;2023-08-21T01:04:21;102688.34;;;14.00;100.00
73101;BME280;61288;53.446;-2.266;2023-08-21T01:06:48;102687.50;;;13.99;100.00
73101;BME280;61288;53.446;-2.266;2023-08-21T01:09:27;102681.47;;;13.97;100.00
73101;BME280;61288;53.446;-2.266;2023-08-21T01:11:58;102677.13;;;13.98;100.00
73101;BME280;61288;53.446;-2.266;2023-08-21T01:14:31;102678.00;;;13.97;100.00
73101;BME280;61288;53.446;-2.266;2023-08-21T01:17:02;102688.47;;;13.95;100.00
73101;BME280;61288;53.446;-2.266;2023-08-21T01:19:41;102692.81;;;13.96;100.00
73101;BME280;61288;53.446;-2.266;2023-08-21T01:22:07;102694.63;;;13.91;100.00
73101;BME280;61288;53.446;-2.266;2023-08-21T01:24:32;102698.09;;;13.92;100.00
73101;BME280;61288;53.446;-2.266;2023-08-21T01:26:58;102705.06;;;13.91;100.00
73101;BME280;61288;53.446;-2.266;2023-08-21T01:29:24;102706.81;;;13.91;100.00
73101;BME280;61288;53.446;-2.266;2023-08-21T01:32:13;102705.06;;;13.91;100.00
73101;BME280;61288;53.446;-2.266;2023-08-21T01:34:46;102712.00;;;13.92;100.00
73101;BME280;61288;53.446;-2.266;2023-08-21T01:37:13;102705.94;;;13.92;100.00
73101;BME280;61288;53.446;-2.266;2023-08-21T01:39:39;102704.22;;;13.91;100.00
73101;BME280;61288;53.446;-2.266;2023-08-21T01:42:05;102712.03;;;13.91;100.00
73101;BME280;61288;53.446;-2.266;2023-08-21T01:44:30;102709.44;;;13.91;100.00
73101;BME280;61288;53.446;-2.266;2023-08-21T01:46:56;102708.53;;;13.92;100.00
73101;BME280;61288;53.446;-2.266;2023-08-21T01:49:21;102693.78;;;13.91;100.00
73101;BME280;61288;53.446;-2.266;2023-08-21T01:51:47;102689.47;;;13.90;100.00
73101;BME280;61288;53.446;-2.266;2023-08-21T01:54:13;102690.38;;;13.89;100.00
73101;BME280;61288;53.446;-2.266;2023-08-21T01:56:39;102699.09;;;13.86;100.00
73101;BME280;61288;53.446;-2.266;2023-08-21T01:59:04;102690.44;;;13.85;100.00
73101;BME280;61288;53.446;-2.266;2023-08-21T02:01:30;102688.78;;;13.81;100.00
73101;BME280;61288;53.446;-2.266;2023-08-21T02:03:56;102691.41;;;13.80;100.00
73101;BME280;61288;53.446;-2.266;2023-08-21T02:06:21;102690.56;;;13.79;100.00
73101;BME280;61288;53.446;-2.266;2023-08-21T02:08:48;102700.13;;;13.79;100.00
73101;BME280;61288;53.446;-2.266;2023-08-21T02:11:14;102699.31;;;13.77;100.00
73101;BME280;61288;53.446;-2.266;2023-08-21T02:13:39;102694.13;;;13.75;100.00
73101;BME280;61288;53.446;-2.266;2023-08-21T02:16:05;102695.00;;;13.76;100.00
73101;BME280;61288;53.446;-2.266;2023-08-21T02:18:30;102695.00;;;13.76;100.00
73101;BME280;61288;53.446;-2.266;2023-08-21T02:20:56;102687.19;;;13.74;100.00
73101;BME280;61288;53.446;-2.266;2023-08-21T02:23:22;102693.34;;;13.71;100.00
73101;BME280;61288;53.446;-2.266;2023-08-21T02:25:49;102694.25;;;13.69;100.00
73101;BME280;61288;53.446;-2.266;2023-08-21T02:28:15;102695.19;;;13.66;100.00
73101;BME280;61288;53.446;-2.266;2023-08-21T02:30:41;102696.97;;;13.64;100.00
73101;BME280;61288;53.446;-2.266;2023-08-21T02:33:07;102689.22;;;13.61;100.00
73101;BME280;61288;53.446;-2.266;2023-08-21T02:35:32;102690.97;;;13.61;100.00
73101;BME280;61288;53.446;-2.266;2023-08-21T02:37:58;102695.28;;;13.62;100.00
73101;BME280;61288;53.446;-2.266;2023-08-21T02:40:24;102697.06;;;13.60;100.00
73101;BME280;61288;53.446;-2.266;2023-08-21T02:42:50;102693.63;;;13.59;100.00
73101;BME280;61288;53.446;-2.266;2023-08-21T02:45:18;102695.34;;;13.58;100.00
73101;BME280;61288;53.446;-2.266;2023-08-21T02:47:44;102697.13;;;13.56;100.00
73101;BME280;61288;53.446;-2.266;2023-08-21T02:50:11;102701.53;;;13.54;100.00
73101;BME280;61288;53.446;-2.266;2023-08-21T02:52:37;102708.50;;;13.52;100.00
73101;BME280;61288;53.446;-2.266;2023-08-21T02:55:03;102702.47;;;13.50;100.00
73101;BME280;61288;53.446;-2.266;2023-08-21T02:57:30;102706.88;;;13.48;100.00
73101;BME280;61288;53.446;-2.266;2023-08-21T02:59:55;102706.88;;;13.48;100.00
73101;BME280;61288;53.446;-2.266;2023-08-21T03:02:21;102700.00;;;13.44;100.00
73101;BME280;61288;53.446;-2.266;2023-08-21T03:04:47;102699.13;;;13.43;100.00
73101;BME280;61288;53.446;-2.266;2023-08-21T03:07:14;102696.56;;;13.40;100.00
73101;BME280;61288;53.446;-2.266;2023-08-21T03:09:40;102692.25;;;13.38;100.00
73101;BME280;61288;53.446;-2.266;2023-08-21T03:12:06;102687.94;;;13.37;100.00
73101;BME280;61288;53.446;-2.266;2023-08-21T03:14:32;102685.38;;;13.35;100.00
73101;BME280;61288;53.446;-2.266;2023-08-21T03:16:57;102689.78;;;13.33;100.00
73101;BME280;61288;53.446;-2.266;2023-08-21T03:19:23;102684.56;;;13.33;100.00
73101;BME280;61288;53.446;-2.266;2023-08-21T03:21:49;102685.44;;;13.32;100.00
73101;BME280;61288;53.446;-2.266;2023-08-21T03:24:14;102692.38;;;13.33;100.00
73101;BME280;61288;53.446;-2.266;2023-08-21T03:26:40;102690.69;;;13.31;100.00
73101;BME280;61288;53.446;-2.266;2023-08-21T03:29:05;102691.56;;;13.29;100.00
73101;BME280;61288;53.446;-2.266;2023-08-21T03:31:31;102695.06;;;13.28;100.00
73101;BME280;61288;53.446;-2.266;2023-08-21T03:33:56;102682.09;;;13.27;100.00
73101;BME280;61288;53.446;-2.266;2023-08-21T03:36:23;102677.78;;;13.24;100.00
73101;BME280;61288;53.446;-2.266;2023-08-21T03:39:01;102682.13;;;13.24;100.00
73101;BME280;61288;53.446;-2.266;2023-08-21T03:41:27;102677.81;;;13.23;100.00
73101;BME280;61288;53.446;-2.266;2023-08-21T03:43:53;102679.63;;;13.19;100.00
73101;BME280;61288;53.446;-2.266;2023-08-21T03:46:19;102685.72;;;13.18;100.00
73101;BME280;61288;53.446;-2.266;2023-08-21T03:48:45;102684.00;;;13.17;100.00
73101;BME280;61288;53.446;-2.266;2023-08-21T03:51:11;102685.75;;;13.17;100.00
73101;BME280;61288;53.446;-2.266;2023-08-21T03:53:37;102689.28;;;13.14;100.00
73101;BME280;61288;53.446;-2.266;2023-08-21T03:56:03;102692.78;;;13.13;100.00
73101;BME280;61288;53.446;-2.266;2023-08-21T03:58:28;102693.66;;;13.12;100.00
73101;BME280;61288;53.446;-2.266;2023-08-21T04:00:55;102693.66;;;13.12;100.00
73101;BME280;61288;53.446;-2.266;2023-08-21T04:03:21;102703.25;;;13.10;100.00
73101;BME280;61288;53.446;-2.266;2023-08-21T04:05:47;102704.09;;;13.10;100.00
73101;BME280;61288;53.446;-2.266;2023-08-21T04:08:12;102708.44;;;13.10;100.00
73101;BME280;61288;53.446;-2.266;2023-08-21T04:10:38;102704.09;;;13.09;100.00
73101;BME280;61288;53.446;-2.266;2023-08-21T04:13:04;102708.47;;;13.07;100.00
73101;BME280;61288;53.446;-2.266;2023-08-21T04:15:30;102716.25;;;13.10;100.00
73101;BME280;61288;53.446;-2.266;2023-08-21T04:17:55;102713.66;;;13.08;100.00
73101;BME280;61288;53.446;-2.266;2023-08-21T04:20:21;102699.00;;;13.04;100.00
73101;BME280;61288;53.446;-2.266;2023-08-21T04:22:47;102713.75;;;13.04;100.00
73101;BME280;61288;53.446;-2.266;2023-08-21T04:25:13;102712.91;;;13.03;100.00
73101;BME280;61288;53.446;-2.266;2023-08-21T04:27:38;102711.16;;;13.04;100.00
73101;BME280;61288;53.446;-2.266;2023-08-21T04:30:04;102712.00;;;13.04;100.00
73101;BME280;61288;53.446;-2.266;2023-08-21T04:32:30;102712.84;;;13.05;100.00
73101;BME280;61288;53.446;-2.266;2023-08-21T04:34:56;102710.31;;;13.02;100.00
73101;BME280;61288;53.446;-2.266;2023-08-21T04:37:23;102707.72;;;13.02;100.00
73101;BME280;61288;53.446;-2.266;2023-08-21T04:39:55;102712.06;;;13.01;100.00
73101;BME280;61288;53.446;-2.266;2023-08-21T04:42:22;102705.16;;;13.00;100.00
73101;BME280;61288;53.446;-2.266;2023-08-21T04:44:48;102700.84;;;12.97;100.00
73101;BME280;61288;53.446;-2.266;2023-08-21T04:47:23;102710.38;;;12.98;100.00
73101;BME280;61288;53.446;-2.266;2023-08-21T04:49:50;102710.38;;;12.98;100.00
73101;BME280;61288;53.446;-2.266;2023-08-21T04:52:17;102709.56;;;12.96;100.00
73101;BME280;61288;53.446;-2.266;2023-08-21T04:54:42;102708.72;;;12.96;100.00
73101;BME280;61288;53.446;-2.266;2023-08-21T04:57:08;102712.22;;;12.93;100.00
73101;BME280;61288;53.446;-2.266;2023-08-21T04:59:35;102711.38;;;12.93;100.00
73101;BME280;61288;53.446;-2.266;2023-08-21T05:02:00;102713.09;;;12.92;100.00
73101;BME280;61288;53.446;-2.266;2023-08-21T05:04:26;102719.16;;;12.93;100.00
73101;BME280;61288;53.446;-2.266;2023-08-21T05:06:52;102721.78;;;12.93;100.00
73101;BME280;61288;53.446;-2.266;2023-08-21T05:09:17;102732.19;;;12.93;100.00
73101;BME280;61288;53.446;-2.266;2023-08-21T05:11:43;102737.38;;;12.93;100.00
73101;BME280;61288;53.446;-2.266;2023-08-21T05:14:08;102734.75;;;12.94;100.00
73101;BME280;61288;53.446;-2.266;2023-08-21T05:16:34;102733.84;;;12.95;100.00
73101;BME280;61288;53.446;-2.266;2023-08-21T05:19:00;102744.31;;;12.94;100.00
73101;BME280;61288;53.446;-2.266;2023-08-21T05:21:25;102747.75;;;12.96;100.00
73101;BME280;61288;53.446;-2.266;2023-08-21T05:23:51;102746.88;;;12.95;100.00
73101;BME280;61288;53.446;-2.266;2023-08-21T05:26:17;102741.69;;;12.94;100.00
73101;BME280;61288;53.446;-2.266;2023-08-21T05:28:42;102737.34;;;12.94;100.00
73101;BME280;61288;53.446;-2.266;2023-08-21T05:31:08;102743.38;;;12.96;100.00
73101;BME280;61288;53.446;-2.266;2023-08-21T05:33:34;102748.59;;;12.96;100.00
73101;BME280;61288;53.446;-2.266;2023-08-21T05:35:59;102747.69;;;12.99;100.00
73101;BME280;61288;53.446;-2.266;2023-08-21T05:38:25;102746.78;;;13.00;100.00
73101;BME280;61288;53.446;-2.266;2023-08-21T05:40:51;102744.16;;;13.02;100.00
73101;BME280;61288;53.446;-2.266;2023-08-21T05:43:16;102754.53;;;13.03;100.00
73101;BME280;61288;53.446;-2.266;2023-08-21T05:45:43;102752.78;;;13.05;100.00
73101;BME280;61288;53.446;-2.266;2023-08-21T05:48:08;102752.72;;;13.07;100.00
73101;BME280;61288;53.446;-2.266;2023-08-21T05:50:34;102750.09;;;13.08;100.00
73101;BME280;61288;53.446;-2.266;2023-08-21T05:53:03;102757.00;;;13.11;100.00
73101;BME280;61288;53.446;-2.266;2023-08-21T05:55:29;102756.13;;;13.10;100.00
73101;BME280;61288;53.446;-2.266;2023-08-21T05:57:54;102758.75;;;13.09;100.00
73101;BME280;61288;53.446;-2.266;2023-08-21T06:00:20;102763.97;;;13.09;100.00
73101;BME280;61288;53.446;-2.266;2023-08-21T06:02:45;102766.56;;;13.09;100.00
73101;BME280;61288;53.446;-2.266;2023-08-21T06:05:11;102776.94;;;13.12;100.00
73101;BME280;61288;53.446;-2.266;2023-08-21T06:07:36;102778.59;;;13.16;100.00
73101;BME280;61288;53.446;-2.266;2023-08-21T06:10:02;102768.09;;;13.21;100.00
73101;BME280;61288;53.446;-2.266;2023-08-21T06:12:30;102773.25;;;13.24;100.00
73101;BME280;61288;53.446;-2.266;2023-08-21T06:14:55;102773.22;;;13.25;100.00
73101;BME280;61288;53.446;-2.266;2023-08-21T06:17:21;102767.06;;;13.29;100.00
73101;BME280;61288;53.446;-2.266;2023-08-21T06:19:47;102764.41;;;13.33;100.00
73101;BME280;61288;53.446;-2.266;2023-08-21T06:22:13;102769.50;;;13.39;100.00
73101;BME280;61288;53.446;-2.266;2023-08-21T06:24:38;102772.03;;;13.45;100.00
73101;BME280;61288;53.446;-2.266;2023-08-21T06:27:04;102769.31;;;13.50;100.00
73101;BME280;61288;53.446;-2.266;2023-08-21T06:29:29;102760.56;;;13.54;100.00
73101;BME280;61288;53.446;-2.266;2023-08-21T06:31:55;102764.78;;;13.60;100.00
73101;BME280;61288;53.446;-2.266;2023-08-21T06:34:20;102763.00;;;13.63;100.00
73101;BME280;61288;53.446;-2.266;2023-08-21T06:36:45;102760.22;;;13.71;100.00
73101;BME280;61288;53.446;-2.266;2023-08-21T06:39:11;102763.63;;;13.75;100.00
73101;BME280;61288;53.446;-2.266;2023-08-21T06:41:36;102756.53;;;13.81;100.00
73101;BME280;61288;53.446;-2.266;2023-08-21T06:44:02;102766.75;;;13.91;100.00
73101;BME280;61288;53.446;-2.266;2023-08-21T06:46:27;102770.81;;;14.04;100.00
73101;BME280;61288;53.446;-2.266;2023-08-21T06:48:53;102772.34;;;14.14;100.00
73101;BME280;61288;53.446;-2.266;2023-08-21T06:51:18;102776.41;;;14.26;100.00
73101;BME280;61288;53.446;-2.266;2023-08-21T06:53:44;102776.19;;;14.36;100.00
73101;BME280;61288;53.446;-2.266;2023-08-21T06:56:09;102775.91;;;14.48;100.00
73101;BME280;61288;53.446;-2.266;2023-08-21T06:58:35;102760.97;;;14.53;100.00
73101;BME280;61288;53.446;-2.266;2023-08-21T07:01:01;102765.28;;;14.56;100.00
73101;BME280;61288;53.446;-2.266;2023-08-21T07:03:26;102759.97;;;14.61;100.00
73101;BME280;61288;53.446;-2.266;2023-08-21T07:05:56;102763.31;;;14.66;100.00
73101;BME280;61288;53.446;-2.266;2023-08-21T07:08:25;102758.00;;;14.70;100.00
73101;BME280;61288;53.446;-2.266;2023-08-21T07:10:53;102761.38;;;14.76;100.00
73101;BME280;61288;53.446;-2.266;2023-08-21T07:13:19;102755.09;;;14.83;100.00
73101;BME280;61288;53.446;-2.266;2023-08-21T07:15:46;102767.06;;;14.90;100.00
73101;BME280;61288;53.446;-2.266;2023-08-21T07:18:12;102771.31;;;14.94;100.00
73101;BME280;61288;53.446;-2.266;2023-08-21T07:20:38;102766.81;;;15.01;100.00
73101;BME280;61288;53.446;-2.266;2023-08-21T07:23:03;102761.44;;;15.06;100.00
73101;BME280;61288;53.446;-2.266;2023-08-21T07:25:28;102750.06;;;15.10;100.00
73101;BME280;61288;53.446;-2.266;2023-08-21T07:27:55;102748.06;;;15.18;100.00
73101;BME280;61288;53.446;-2.266;2023-08-21T07:30:21;102749.69;;;15.22;100.00
73101;BME280;61288;53.446;-2.266;2023-08-21T07:32:48;102742.59;;;15.27;100.00
73101;BME280;61288;53.446;-2.266;2023-08-21T07:35:14;102748.63;;;15.29;100.00
73101;BME280;61288;53.446;-2.266;2023-08-21T07:37:44;102752.06;;;15.31;100.00
73101;BME280;61288;53.446;-2.266;2023-08-21T07:40:10;102757.16;;;15.36;100.00
73101;BME280;61288;53.446;-2.266;2023-08-21T07:42:36;102737.09;;;15.37;100.00
73101;BME280;61288;53.446;-2.266;2023-08-21T07:45:02;102744.00;;;15.39;100.00
73101;BME280;61288;53.446;-2.266;2023-08-21T07:47:28;102736.09;;;15.42;100.00
73101;BME280;61288;53.446;-2.266;2023-08-21T07:49:54;102746.44;;;15.45;100.00
73101;BME280;61288;53.446;-2.266;2023-08-21T07:52:20;102742.75;;;15.53;100.00
73101;BME280;61288;53.446;-2.266;2023-08-21T07:54:45;102739.13;;;15.58;100.00
73101;BME280;61288;53.446;-2.266;2023-08-21T07:57:12;102741.53;;;15.65;100.00
73101;BME280;61288;53.446;-2.266;2023-08-21T07:59:38;102735.28;;;15.70;100.00
73101;BME280;61288;53.446;-2.266;2023-08-21T08:02:04;102736.78;;;15.79;100.00
73101;BME280;61288;53.446;-2.266;2023-08-21T08:04:30;102731.34;;;15.85;100.00
73101;BME280;61288;53.446;-2.266;2023-08-21T08:06:55;102729.38;;;15.94;100.00
73101;BME280;61288;53.446;-2.266;2023-08-21T08:09:21;102731.72;;;16.03;100.00
73101;BME280;61288;53.446;-2.266;2023-08-21T08:11:46;102723.63;;;16.11;100.00
73101;BME280;61288;53.446;-2.266;2023-08-21T08:14:12;102708.63;;;16.16;100.00
73101;BME280;61288;53.446;-2.266;2023-08-21T08:16:37;102706.69;;;16.23;100.00
73101;BME280;61288;53.446;-2.266;2023-08-21T08:19:03;102719.47;;;16.32;100.00
73101;BME280;61288;53.446;-2.266;2023-08-21T08:21:28;102715.00;;;16.36;100.00
73101;BME280;61288;53.446;-2.266;2023-08-21T08:23:54;102712.97;;;16.44;100.00
73101;BME280;61288;53.446;-2.266;2023-08-21T08:26:19;102687.50;;;16.49;100.00
73101;BME280;61288;53.446;-2.266;2023-08-21T08:28:44;102685.53;;;16.56;100.00
73101;BME280;61288;53.446;-2.266;2023-08-21T08:31:17;102690.56;;;16.62;100.00
73101;BME280;61288;53.446;-2.266;2023-08-21T08:33:44;102693.84;;;16.69;100.00
73101;BME280;61288;53.446;-2.266;2023-08-21T08:36:11;102689.94;;;16.81;100.00
73101;BME280;61288;53.446;-2.266;2023-08-21T08:38:36;102702.59;;;16.93;100.00
73101;BME280;61288;53.446;-2.266;2023-08-21T08:41:06;102691.88;;;17.01;100.00
73101;BME280;61288;53.446;-2.266;2023-08-21T08:43:39;102681.97;;;17.09;100.00
73101;BME280;61288;53.446;-2.266;2023-08-21T08:46:06;102666.38;;;17.06;100.00
73101;BME280;61288;53.446;-2.266;2023-08-21T08:48:34;102675.47;;;17.20;100.00
73101;BME280;61288;53.446;-2.266;2023-08-21T08:51:01;102664.72;;;17.27;100.00
73101;BME280;61288;53.446;-2.266;2023-08-21T08:53:27;102666.00;;;17.39;100.00
73101;BME280;61288;53.446;-2.266;2023-08-21T08:55:53;102644.88;;;17.44;100.00
73101;BME280;61288;53.446;-2.266;2023-08-21T08:58:19;102652.13;;;17.59;100.00
73101;BME280;61288;53.446;-2.266;2023-08-21T09:00:44;102648.59;;;17.83;100.00
73101;BME280;61288;53.446;-2.266;2023-08-21T09:03:10;102645.28;;;18.00;100.00
73101;BME280;61288;53.446;-2.266;2023-08-21T09:05:39;102629.63;;;17.98;100.00
73101;BME280;61288;53.446;-2.266;2023-08-21T09:08:10;102620.34;;;18.12;100.00
73101;BME280;61288;53.446;-2.266;2023-08-21T09:10:40;102602.91;;;18.11;100.00
73101;BME280;61288;53.446;-2.266;2023-08-21T09:13:12;102609.06;;;18.10;100.00
73101;BME280;61288;53.446;-2.266;2023-08-21T09:15:41;102604.16;;;18.23;100.00
73101;BME280;61288;53.446;-2.266;2023-08-21T09:18:10;102613.66;;;18.46;100.00
73101;BME280;61288;53.446;-2.266;2023-08-21T09:20:36;102611.69;;;18.51;100.00
73101;BME280;61288;53.446;-2.266;2023-08-21T09:23:02;102596.25;;;18.64;100.00
73101;BME280;61288;53.446;-2.266;2023-08-21T09:25:34;102595.31;;;18.65;100.00
73101;BME280;61288;53.446;-2.266;2023-08-21T09:28:04;102597.31;;;18.60;100.00
73101;BME280;61288;53.446;-2.266;2023-08-21T09:30:29;102594.97;;;18.54;100.00
73101;BME280;61288;53.446;-2.266;2023-08-21T09:32:57;102581.84;;;18.54;100.00
73101;BME280;61288;53.446;-2.266;2023-08-21T09:35:25;102581.06;;;18.52;100.00
73101;BME280;61288;53.446;-2.266;2023-08-21T09:37:51;102590.91;;;18.46;100.00
73101;BME280;61288;53.446;-2.266;2023-08-21T09:40:22;102582.50;;;18.38;100.00
73101;BME280;61288;53.446;-2.266;2023-08-21T09:42:52;102581.47;;;18.42;100.00
73101;BME280;61288;53.446;-2.266;2023-08-21T09:45:23;102578.56;;;18.48;100.00
73101;BME280;61288;53.446;-2.266;2023-08-21T09:47:50;102583.41;;;18.77;100.00
73101;BME280;61288;53.446;-2.266;2023-08-21T09:50:17;102563.94;;;19.02;100.00
73101;BME280;61288;53.446;-2.266;2023-08-21T09:52:43;102576.06;;;19.24;100.00
73101;BME280;61288;53.446;-2.266;2023-08-21T09:55:09;102542.38;;;19.32;100.00
73101;BME280;61288;53.446;-2.266;2023-08-21T09:57:36;102538.00;;;19.50;100.00
73101;BME280;61288;53.446;-2.266;2023-08-21T10:00:03;102542.97;;;19.74;100.00
73101;BME280;61288;53.446;-2.266;2023-08-21T10:02:42;102537.47;;;19.78;100.00
73101;BME280;61288;53.446;-2.266;2023-08-21T10:05:13;102529.25;;;19.85;100.00
73101;BME280;61288;53.446;-2.266;2023-08-21T10:07:41;102539.56;;;19.89;100.00
73101;BME280;61288;53.446;-2.266;2023-08-21T10:10:08;102551.66;;;20.11;100.00
73101;BME280;61288;53.446;-2.266;2023-08-21T10:12:34;102528.25;;;20.23;100.00
73101;BME280;61288;53.446;-2.266;2023-08-21T10:15:00;102521.06;;;20.26;100.00
73101;BME280;61288;53.446;-2.266;2023-08-21T10:17:26;102526.53;;;20.39;100.00
73101;BME280;61288;53.446;-2.266;2023-08-21T10:19:52;102502.38;;;20.31;100.00
73101;BME280;61288;53.446;-2.266;2023-08-21T10:22:43;102500.16;;;20.23;100.00
73101;BME280;61288;53.446;-2.266;2023-08-21T10:25:15;102516.72;;;20.25;100.00
73101;BME280;61288;53.446;-2.266;2023-08-21T10:27:55;102509.44;;;20.30;100.00
73101;BME280;61288;53.446;-2.266;2023-08-21T10:30:26;102501.84;;;20.24;100.00
73101;BME280;61288;53.446;-2.266;2023-08-21T10:32:54;102495.00;;;20.04;100.00
73101;BME280;61288;53.446;-2.266;2023-08-21T10:35:25;102506.44;;;19.85;100.00
73101;BME280;61288;53.446;-2.266;2023-08-21T10:38:16;102528.81;;;19.59;100.00
73101;BME280;61288;53.446;-2.266;2023-08-21T10:41:05;102527.81;;;19.44;100.00
73101;BME280;61288;53.446;-2.266;2023-08-21T10:43:43;102515.47;;;19.27;100.00
73101;BME280;61288;53.446;-2.266;2023-08-21T10:46:09;102525.72;;;19.14;100.00
73101;BME280;61288;53.446;-2.266;2023-08-21T10:48:35;102534.84;;;19.07;100.00
73101;BME280;61288;53.446;-2.266;2023-08-21T10:51:03;102534.13;;;19.03;100.00
73101;BME280;61288;53.446;-2.266;2023-08-21T10:53:31;102538.66;;;18.99;100.00
73101;BME280;61288;53.446;-2.266;2023-08-21T10:55:57;102522.97;;;18.98;100.00
73101;BME280;61288;53.446;-2.266;2023-08-21T10:58:26;102517.63;;;18.99;100.00
73101;BME280;61288;53.446;-2.266;2023-08-21T11:00:58;102525.38;;;19.02;100.00
73101;BME280;61288;53.446;-2.266;2023-08-21T11:03:23;102529.00;;;19.19;100.00
73101;BME280;61288;53.446;-2.266;2023-08-21T11:06:10;102521.13;;;19.37;100.00
73101;BME280;61288;53.446;-2.266;2023-08-21T11:08:36;102512.56;;;19.51;100.00
73101;BME280;61288;53.446;-2.266;2023-08-21T11:11:03;102506.69;;;19.63;100.00
73101;BME280;61288;53.446;-2.266;2023-08-21T11:13:30;102500.25;;;19.69;100.00
73101;BME280;61288;53.446;-2.266;2023-08-21T11:16:03;102500.75;;;19.77;100.00
73101;BME280;61288;53.446;-2.266;2023-08-21T11:18:37;102507.38;;;19.84;100.00
73101;BME280;61288;53.446;-2.266;2023-08-21T11:23:34;102485.72;;;19.97;100.00
73101;BME280;61288;53.446;-2.266;2023-08-21T11:26:00;102471.78;;;20.12;100.00
73101;BME280;61288;53.446;-2.266;2023-08-21T11:28:28;102451.09;;;20.22;100.00
73101;BME280;61288;53.446;-2.266;2023-08-21T11:30:55;102455.91;;;20.30;100.00
73101;BME280;61288;53.446;-2.266;2023-08-21T11:33:21;102448.88;;;20.30;100.00
73101;BME280;61288;53.446;-2.266;2023-08-21T11:35:48;102463.47;;;20.36;100.00
73101;BME280;61288;53.446;-2.266;2023-08-21T11:38:16;102465.63;;;20.45;100.00
73101;BME280;61288;53.446;-2.266;2023-08-21T11:40:42;102450.75;;;20.44;100.00
73101;BME280;61288;53.446;-2.266;2023-08-21T11:43:07;102447.69;;;20.36;100.00
73101;BME280;61288;53.446;-2.266;2023-08-21T11:45:34;102447.66;;;20.20;100.00
73101;BME280;61288;53.446;-2.266;2023-08-21T11:48:00;102452.50;;;20.12;100.00
73101;BME280;61288;53.446;-2.266;2023-08-21T11:50:25;102461.16;;;20.14;100.00
73101;BME280;61288;53.446;-2.266;2023-08-21T11:52:52;102473.31;;;20.16;100.00
73101;BME280;61288;53.446;-2.266;2023-08-21T11:55:18;102463.19;;;20.09;100.00
73101;BME280;61288;53.446;-2.266;2023-08-21T11:57:52;102443.44;;;20.17;100.00
73101;BME280;61288;53.446;-2.266;2023-08-21T12:00:27;102466.88;;;20.54;100.00
73101;BME280;61288;53.446;-2.266;2023-08-21T12:03:00;102450.66;;;20.94;100.00
73101;BME280;61288;53.446;-2.266;2023-08-21T12:05:28;102434.16;;;21.37;100.00
73101;BME280;61288;53.446;-2.266;2023-08-21T12:07:55;102412.09;;;21.69;100.00
73101;BME280;61288;53.446;-2.266;2023-08-21T12:10:25;102364.13;;;21.76;100.00
73101;BME280;61288;53.446;-2.266;2023-08-21T12:12:51;102352.88;;;22.02;100.00
73101;BME280;61288;53.446;-2.266;2023-08-21T12:15:17;102345.41;;;22.23;100.00
73101;BME280;61288;53.446;-2.266;2023-08-21T12:17:42;102362.63;;;22.29;100.00
73101;BME280;61288;53.446;-2.266;2023-08-21T12:20:08;102339.28;;;22.50;100.00
73101;BME280;61288;53.446;-2.266;2023-08-21T12:22:37;102316.94;;;22.56;100.00
73101;BME280;61288;53.446;-2.266;2023-08-21T12:25:02;102313.66;;;22.38;100.00
73101;BME280;61288;53.446;-2.266;2023-08-21T12:27:30;102316.47;;;22.21;100.00
73101;BME280;61288;53.446;-2.266;2023-08-21T12:29:56;102297.97;;;21.94;100.00
73101;BME280;61288;53.446;-2.266;2023-08-21T12:32:21;102313.38;;;21.73;100.00